sensor_id;sensor_type;location;lat;lon;timestamp;pressure;altitude;pressure_sealevel;temperature;humidity
4858;BME280;58975;51.978;8.472;2023-03-04T00:04:45;101110.47;;;2.24;100.00
4858;BME280;58975;51.978;8.472;2023-03-04T00:09:43;101107.19;;;2.19;100.00
4858;BME280;58975;51.978;8.472;2023-03-04T00:14:40;101116.09;;;2.15;100.00
4858;BME280;58975;51.978;8.472;2023-03-04T00:19:37;101113.34;;;2.18;100.00
4858;BME280;58975;51.978;8.472;2023-03-04T00:24:33;101108.84;;;2.21;100.00
4858;BME280;58975;51.978;8.472;2023-03-04T00:29:30;101116.50;;;2.27;100.00
4858;BME280;58975;51.978;8.472;2023-03-04T00:34:26;101112.06;;;2.29;100.00
4858;BME280;58975;51.978;8.472;2023-03-04T00:39:23;101102.91;;;2.39;100.00
4858;BME280;58975;51.978;8.472;2023-03-04T00:44:20;101101.25;;;2.37;100.00
4858;BME280;58975;51.978;8.472;2023-03-04T00:49:16;101099.50;;;2.37;100.00
4858;BME280;58975;51.978;8.472;2023-03-04T00:54:13;101087.97;;;2.42;100.00
4858;BME280;58975;51.978;8.472;2023-03-04T00:59:09;101097.34;;;2.49;100.00
4858;BME280;58975;51.978;8.472;2023-03-04T01:04:05;101092.53;;;2.60;100.00
4858;BME280;58975;51.978;8.472;2023-03-04T01:09:02;101087.97;;;2.65;100.00
4858;BME280;58975;51.978;8.472;2023-03-04T01:13:58;101092.94;;;2.72;100.00
4858;BME280;58975;51.978;8.472;2023-03-04T01:18:55;101087.66;;;2.74;100.00
4858;BME280;58975;51.978;8.472;2023-03-04T01:23:51;101090.16;;;2.77;100.00
4858;BME280;58975;51.978;8.472;2023-03-04T01:28:48;101085.69;;;2.79;100.00
4858;BME280;58975;51.978;8.472;2023-03-04T01:33:44;101075.72;;;2.87;100.00
4858;BME280;58975;51.978;8.472;2023-03-04T01:38:40;101068.41;;;2.95;100.00
4858;BME280;58975;51.978;8.472;2023-03-04T01:43:37;101056.78;;;3.01;100.00
4858;BME280;58975;51.978;8.472;2023-03-04T01:48:36;101058.38;;;3.05;100.00
4858;BME280;58975;51.978;8.472;2023-03-04T01:53:33;101044.06;;;3.12;100.00
4858;BME280;58975;51.978;8.472;2023-03-04T01:58:31;101044.03;;;3.13;100.00
4858;BME280;58975;51.978;8.472;2023-03-04T02:03:27;101030.06;;;3.11;100.00
4858;BME280;58975;51.978;8.472;2023-03-04T02:08:24;101026.44;;;3.14;100.00
4858;BME280;58975;51.978;8.472;2023-03-04T02:13:20;101027.38;;;3.13;100.00
4858;BME280;58975;51.978;8.472;2023-03-04T02:18:20;101016.84;;;3.13;100.00
4858;BME280;58975;51.978;8.472;2023-03-04T02:23:32;101021.84;;;3.19;100.00
4858;BME280;58975;51.978;8.472;2023-03-04T02:28:30;101018.25;;;3.21;100.00
4858;BME280;58975;51.978;8.472;2023-03-04T02:33:27;101012.03;;;3.22;100.00
4858;BME280;58975;51.978;8.472;2023-03-04T02:38:23;101013.94;;;3.19;100.00
4858;BME280;58975;51.978;8.472;2023-03-04T02:43:20;101011.44;;;3.16;100.00
4858;BME280;58975;51.978;8.472;2023-03-04T02:48:20;101009.00;;;3.11;100.00
4858;BME280;58975;51.978;8.472;2023-03-04T02:53:17;101008.63;;;3.20;100.00
4858;BME280;58975;51.978;8.472;2023-03-04T02:58:15;101004.00;;;3.25;100.00
4858;BME280;58975;51.978;8.472;2023-03-04T03:03:12;101005.81;;;3.25;100.00
4858;BME280;58975;51.978;8.472;2023-03-04T03:08:08;101008.56;;;3.22;100.00
4858;BME280;58975;51.978;8.472;2023-03-04T03:13:05;101002.47;;;3.21;100.00
4858;BME280;58975;51.978;8.472;2023-03-04T03:18:01;101003.38;;;3.20;100.00
4858;BME280;58975;51.978;8.472;2023-03-04T03:22:57;100994.63;;;3.20;100.00
4858;BME280;58975;51.978;8.472;2023-03-04T03:27:54;100984.13;;;3.18;100.00
4858;BME280;58975;51.978;8.472;2023-03-04T03:32:50;100982.44;;;3.17;100.00
4858;BME280;58975;51.978;8.472;2023-03-04T03:37:47;100984.13;;;3.18;100.00
4858;BME280;58975;51.978;8.472;2023-03-04T03:42:44;100978.88;;;3.18;100.00
4858;BME280;58975;51.978;8.472;2023-03-04T03:47:40;100977.81;;;3.22;100.00
4858;BME280;58975;51.978;8.472;2023-03-04T03:52:37;100974.41;;;3.20;100.00
4858;BME280;58975;51.978;8.472;2023-03-04T03:57:33;100985.84;;;3.19;100.00
4858;BME280;58975;51.978;8.472;2023-03-04T04:02:30;100977.91;;;3.21;100.00
4858;BME280;58975;51.978;8.472;2023-03-04T04:07:26;100974.56;;;3.17;100.00
4858;BME280;58975;51.978;8.472;2023-03-04T04:12:22;100968.47;;;3.15;100.00
4858;BME280;58975;51.978;8.472;2023-03-04T04:17:19;100964.13;;;3.14;100.00
4858;BME280;58975;51.978;8.472;2023-03-04T04:22:18;100967.44;;;3.19;100.00
4858;BME280;58975;51.978;8.472;2023-03-04T04:27:14;100962.16;;;3.19;100.00
4858;BME280;58975;51.978;8.472;2023-03-04T04:32:11;100962.16;;;3.19;100.00
4858;BME280;58975;51.978;8.472;2023-03-04T04:37:08;100956.97;;;3.18;100.00
4858;BME280;58975;51.978;8.472;2023-03-04T04:42:04;100953.41;;;3.19;100.00
4858;BME280;58975;51.978;8.472;2023-03-04T04:47:01;100948.16;;;3.19;100.00
4858;BME280;58975;51.978;8.472;2023-03-04T04:51:57;100947.28;;;3.18;100.00
4858;BME280;58975;51.978;8.472;2023-03-04T04:56:54;100949.00;;;3.19;100.00
4858;BME280;58975;51.978;8.472;2023-03-04T05:01:50;100943.69;;;3.21;100.00
4858;BME280;58975;51.978;8.472;2023-03-04T05:06:47;100950.78;;;3.19;100.00
4858;BME280;58975;51.978;8.472;2023-03-04T05:11:43;100950.72;;;3.20;100.00
4858;BME280;58975;51.978;8.472;2023-03-04T05:16:40;100949.06;;;3.18;100.00
4858;BME280;58975;51.978;8.472;2023-03-04T05:21:36;100952.50;;;3.20;100.00
4858;BME280;58975;51.978;8.472;2023-03-04T05:26:32;100959.53;;;3.19;100.00
4858;BME280;58975;51.978;8.472;2023-03-04T05:31:29;100951.66;;;3.19;100.00
4858;BME280;58975;51.978;8.472;2023-03-04T05:36:26;100955.19;;;3.18;100.00
4858;BME280;58975;51.978;8.472;2023-03-04T05:41:22;100951.66;;;3.19;100.00
4858;BME280;58975;51.978;8.472;2023-03-04T05:46:19;100960.72;;;3.12;100.00
4858;BME280;58975;51.978;8.472;2023-03-04T05:51:21;100965.16;;;3.10;100.00
4858;BME280;58975;51.978;8.472;2023-03-04T05:56:19;100967.81;;;3.10;100.00
4858;BME280;58975;51.978;8.472;2023-03-04T06:01:16;100976.88;;;3.03;100.00
4858;BME280;58975;51.978;8.472;2023-03-04T06:06:12;100971.88;;;2.97;100.00
4858;BME280;58975;51.978;8.472;2023-03-04T06:11:09;100966.84;;;2.91;100.00
4858;BME280;58975;51.978;8.472;2023-03-04T06:16:05;100970.50;;;2.87;100.00
4858;BME280;58975;51.978;8.472;2023-03-04T06:21:02;100973.31;;;2.82;100.00
4858;BME280;58975;51.978;8.472;2023-03-04T06:25:59;100976.03;;;2.81;100.00
4858;BME280;58975;51.978;8.472;2023-03-04T06:30:56;100970.75;;;2.81;100.00
4858;BME280;58975;51.978;8.472;2023-03-04T06:35:55;100968.91;;;2.83;100.00
4858;BME280;58975;51.978;8.472;2023-03-04T06:40:52;100972.28;;;2.86;100.00
4858;BME280;58975;51.978;8.472;2023-03-04T06:45:52;100982.88;;;2.85;100.00
4858;BME280;58975;51.978;8.472;2023-03-04T06:50:49;100985.56;;;2.83;100.00
4858;BME280;58975;51.978;8.472;2023-03-04T06:55:46;100995.13;;;2.86;100.00
4858;BME280;58975;51.978;8.472;2023-03-04T07:00:43;100994.31;;;2.84;100.00
4858;BME280;58975;51.978;8.472;2023-03-04T07:05:41;100987.09;;;2.89;100.00
4858;BME280;58975;51.978;8.472;2023-03-04T07:10:37;100990.47;;;2.93;100.00
4858;BME280;58975;51.978;8.472;2023-03-04T07:15:34;100992.06;;;2.97;100.00
4858;BME280;58975;51.978;8.472;2023-03-04T07:20:31;100988.38;;;3.01;100.00
4858;BME280;58975;51.978;8.472;2023-03-04T07:25:27;100991.63;;;3.07;100.00
4858;BME280;58975;51.978;8.472;2023-03-04T07:30:24;100987.16;;;3.09;100.00
4858;BME280;58975;51.978;8.472;2023-03-04T07:35:20;100986.94;;;3.14;100.00
4858;BME280;58975;51.978;8.472;2023-03-04T07:40:17;100986.19;;;3.12;100.00
4858;BME280;58975;51.978;8.472;2023-03-04T07:45:13;100980.00;;;3.13;100.00
4858;BME280;58975;51.978;8.472;2023-03-04T07:50:11;100986.34;;;3.07;100.00
4858;BME280;58975;51.978;8.472;2023-03-04T07:55:09;100997.69;;;3.09;100.00
4858;BME280;58975;51.978;8.472;2023-03-04T08:00:06;100989.97;;;3.05;100.00
4858;BME280;58975;51.978;8.472;2023-03-04T08:05:03;100990.84;;;3.05;100.00
4858;BME280;58975;51.978;8.472;2023-03-04T08:09:59;100987.09;;;3.11;100.00
4858;BME280;58975;51.978;8.472;2023-03-04T08:14:56;100997.44;;;3.15;100.00
4858;BME280;58975;51.978;8.472;2023-03-04T08:19:52;100994.03;;;3.33;100.00
4858;BME280;58975;51.978;8.472;2023-03-04T08:24:49;100998.41;;;3.13;100.00
4858;BME280;58975;51.978;8.472;2023-03-04T08:29:45;100997.78;;;3.06;100.00
4858;BME280;58975;51.978;8.472;2023-03-04T08:34:41;101008.31;;;3.06;100.00
4858;BME280;58975;51.978;8.472;2023-03-04T08:39:38;101006.41;;;3.10;100.00
4858;BME280;58975;51.978;8.472;2023-03-04T08:44:34;100999.19;;;3.15;100.00
4858;BME280;58975;51.978;8.472;2023-03-04T08:49:31;100995.84;;;3.11;100.00
4858;BME280;58975;51.978;8.472;2023-03-04T08:54:27;101004.63;;;3.10;100.00
4858;BME280;58975;51.978;8.472;2023-03-04T08:59:23;101004.47;;;3.15;100.00
4858;BME280;58975;51.978;8.472;2023-03-04T09:04:20;101004.47;;;3.15;100.00
4858;BME280;58975;51.978;8.472;2023-03-04T09:09:16;101012.72;;;3.27;100.00
4858;BME280;58975;51.978;8.472;2023-03-04T09:14:13;101007.59;;;3.24;100.00
4858;BME280;58975;51.978;8.472;2023-03-04T09:19:09;101019.09;;;3.22;100.00
4858;BME280;58975;51.978;8.472;2023-03-04T09:24:06;101011.91;;;3.25;100.00
4858;BME280;58975;51.978;8.472;2023-03-04T09:29:03;101014.69;;;3.22;100.00
4858;BME280;58975;51.978;8.472;2023-03-04T09:33:59;101013.72;;;3.25;100.00
4858;BME280;58975;51.978;8.472;2023-03-04T09:39:00;101012.22;;;3.40;100.00
4858;BME280;58975;51.978;8.472;2023-03-04T09:43:57;101016.84;;;3.55;100.00
4858;BME280;58975;51.978;8.472;2023-03-04T09:48:54;101014.03;;;3.38;100.00
4858;BME280;58975;51.978;8.472;2023-03-04T09:54:22;101017.13;;;3.49;100.00
4858;BME280;58975;51.978;8.472;2023-03-04T09:59:37;101017.75;;;3.54;100.00
4858;BME280;58975;51.978;8.472;2023-03-04T10:04:44;101018.56;;;3.56;100.00
4858;BME280;58975;51.978;8.472;2023-03-04T10:09:51;101010.91;;;3.50;100.00
4858;BME280;58975;51.978;8.472;2023-03-04T10:14:52;101015.25;;;3.51;100.00
4858;BME280;58975;51.978;8.472;2023-03-04T10:20:04;101009.09;;;3.52;100.00
4858;BME280;58975;51.978;8.472;2023-03-04T10:25:19;101022.53;;;3.66;100.00
4858;BME280;58975;51.978;8.472;2023-03-04T10:30:29;101018.25;;;3.63;100.00
4858;BME280;58975;51.978;8.472;2023-03-04T10:35:34;101022.00;;;3.78;100.00
4858;BME280;58975;51.978;8.472;2023-03-04T10:40:37;101023.25;;;3.90;100.00
4858;BME280;58975;51.978;8.472;2023-03-04T10:45:38;101019.03;;;4.06;100.00
4858;BME280;58975;51.978;8.472;2023-03-04T10:50:35;101012.50;;;4.14;100.00
4858;BME280;58975;51.978;8.472;2023-03-04T10:55:43;101002.09;;;4.11;100.00
4858;BME280;58975;51.978;8.472;2023-03-04T11:00:40;101004.22;;;4.03;100.00
4858;BME280;58975;51.978;8.472;2023-03-04T11:05:36;101000.25;;;4.13;100.00
4858;BME280;58975;51.978;8.472;2023-03-04T11:15:49;100983.31;;;4.75;100.00
4858;BME280;58975;51.978;8.472;2023-03-04T11:20:47;100961.72;;;5.03;100.00
4858;BME280;58975;51.978;8.472;2023-03-04T11:25:48;100944.75;;;5.08;100.00
4858;BME280;58975;51.978;8.472;2023-03-04T11:41:27;100926.38;;;4.88;100.00
4858;BME280;58975;51.978;8.472;2023-03-04T11:46:35;100914.13;;;4.87;100.00
4858;BME280;58975;51.978;8.472;2023-03-04T11:56:50;100907.59;;;4.94;100.00
4858;BME280;58975;51.978;8.472;2023-03-04T12:02:01;100898.78;;;5.12;100.00
4858;BME280;58975;51.978;8.472;2023-03-04T12:07:20;100892.41;;;5.34;100.00
4858;BME280;58975;51.978;8.472;2023-03-04T12:23:07;100875.78;;;5.49;100.00
4858;BME280;58975;51.978;8.472;2023-03-04T12:29:10;100866.78;;;5.68;100.00
4858;BME280;58975;51.978;8.472;2023-03-04T12:33:56;100850.97;;;5.84;100.00
4858;BME280;58975;51.978;8.472;2023-03-04T12:43:53;100846.19;;;5.75;100.00
4858;BME280;58975;51.978;8.472;2023-03-04T12:54:22;100827.06;;;5.87;100.00
4858;BME280;58975;51.978;8.472;2023-03-04T12:59:22;100835.03;;;6.03;100.00
4858;BME280;58975;51.978;8.472;2023-03-04T13:04:49;100842.53;;;6.26;100.00
4858;BME280;58975;51.978;8.472;2023-03-04T13:10:10;100831.09;;;5.94;100.00
4858;BME280;58975;51.978;8.472;2023-03-04T13:20:32;100824.25;;;6.53;100.00
4858;BME280;58975;51.978;8.472;2023-03-04T13:40:43;100805.09;;;6.02;100.00
4858;BME280;58975;51.978;8.472;2023-03-04T13:45:39;100810.75;;;5.79;100.00
4858;BME280;58975;51.978;8.472;2023-03-04T16:21:41;100778.59;;;4.54;100.00
4858;BME280;58975;51.978;8.472;2023-03-04T16:26:38;100780.28;;;4.38;100.00
4858;BME280;58975;51.978;8.472;2023-03-04T16:31:34;100776.75;;;4.20;100.00
4858;BME280;58975;51.978;8.472;2023-03-04T16:36:31;100768.47;;;3.92;100.00
4858;BME280;58975;51.978;8.472;2023-03-04T16:41:28;100777.66;;;3.83;100.00
4858;BME280;58975;51.978;8.472;2023-03-04T16:46:28;100775.94;;;3.82;100.00
4858;BME280;58975;51.978;8.472;2023-03-04T16:51:25;100760.78;;;3.87;100.00
4858;BME280;58975;51.978;8.472;2023-03-04T16:56:22;100771.47;;;3.84;100.00
4858;BME280;58975;51.978;8.472;2023-03-04T17:01:21;100772.88;;;3.72;100.00
4858;BME280;58975;51.978;8.472;2023-03-04T17:06:18;100778.28;;;3.69;100.00
4858;BME280;58975;51.978;8.472;2023-03-04T17:11:18;100792.88;;;3.58;100.00
4858;BME280;58975;51.978;8.472;2023-03-04T17:16:15;100801.06;;;3.52;100.00
4858;BME280;58975;51.978;8.472;2023-03-04T17:21:15;100809.22;;;3.46;100.00
4858;BME280;58975;51.978;8.472;2023-03-04T17:26:13;100806.59;;;3.46;100.00
4858;BME280;58975;51.978;8.472;2023-03-04T17:31:12;100812.00;;;3.43;100.00
4858;BME280;58975;51.978;8.472;2023-03-04T17:36:10;100808.78;;;3.36;100.00
4858;BME280;58975;51.978;8.472;2023-03-04T17:41:10;100820.19;;;3.37;100.00
4858;BME280;58975;51.978;8.472;2023-03-04T17:46:12;100818.53;;;3.34;100.00
4858;BME280;58975;51.978;8.472;2023-03-04T17:51:10;100814.44;;;3.27;100.00
4858;BME280;58975;51.978;8.472;2023-03-04T17:56:08;100823.34;;;3.24;100.00
4858;BME280;58975;51.978;8.472;2023-03-04T18:01:14;100806.91;;;3.19;100.00
4858;BME280;58975;51.978;8.472;2023-03-04T18:06:12;100811.03;;;3.25;100.00
4858;BME280;58975;51.978;8.472;2023-03-04T18:11:08;100813.78;;;3.22;100.00
4858;BME280;58975;51.978;8.472;2023-03-04T18:16:05;100809.53;;;3.19;100.00
4858;BME280;58975;51.978;8.472;2023-03-04T18:21:04;100806.94;;;3.18;100.00
4858;BME280;58975;51.978;8.472;2023-03-04T18:26:01;100805.25;;;3.17;100.00
4858;BME280;58975;51.978;8.472;2023-03-04T18:30:59;100808.13;;;3.11;100.00
4858;BME280;58975;51.978;8.472;2023-03-04T18:36:01;100804.66;;;3.10;100.00
4858;BME280;58975;51.978;8.472;2023-03-04T18:40:59;100800.44;;;3.06;100.00
4858;BME280;58975;51.978;8.472;2023-03-04T18:50:57;100799.53;;;3.07;100.00
4858;BME280;58975;51.978;8.472;2023-03-04T18:55:57;100798.94;;;3.01;100.00
4858;BME280;58975;51.978;8.472;2023-03-04T19:00:56;100806.91;;;2.99;100.00
4858;BME280;58975;51.978;8.472;2023-03-04T19:05:54;100805.31;;;2.95;100.00
4858;BME280;58975;51.978;8.472;2023-03-04T19:10:51;100796.66;;;2.93;100.00
4858;BME280;58975;51.978;8.472;2023-03-04T19:15:52;100807.09;;;2.95;100.00
4858;BME280;58975;51.978;8.472;2023-03-04T19:20:48;100802.69;;;2.95;100.00
4858;BME280;58975;51.978;8.472;2023-03-04T19:25:45;100803.59;;;2.94;100.00
4858;BME280;58975;51.978;8.472;2023-03-04T19:30:41;100812.56;;;2.90;100.00
4858;BME280;58975;51.978;8.472;2023-03-04T19:35:39;100806.38;;;2.91;100.00
4858;BME280;58975;51.978;8.472;2023-03-04T19:40:38;100817.84;;;2.90;100.00
4858;BME280;58975;51.978;8.472;2023-03-04T19:45:35;100818.75;;;2.89;100.00
4858;BME280;58975;51.978;8.472;2023-03-04T19:50:32;100824.91;;;2.88;100.00
4858;BME280;58975;51.978;8.472;2023-03-04T19:55:28;100821.50;;;2.86;100.00
4858;BME280;58975;51.978;8.472;2023-03-04T20:00:25;100819.94;;;2.82;100.00
4858;BME280;58975;51.978;8.472;2023-03-04T20:05:21;100822.94;;;2.73;100.00
4858;BME280;58975;51.978;8.472;2023-03-04T20:10:18;100829.09;;;2.72;100.00
4858;BME280;58975;51.978;8.472;2023-03-04T20:15:14;100836.28;;;2.68;100.00
4858;BME280;58975;51.978;8.472;2023-03-04T20:20:11;100838.84;;;2.70;100.00
4858;BME280;58975;51.978;8.472;2023-03-04T20:25:07;100825.81;;;2.67;100.00
4858;BME280;58975;51.978;8.472;2023-03-04T20:30:04;100823.13;;;2.68;100.00
4858;BME280;58975;51.978;8.472;2023-03-04T20:35:01;100825.75;;;2.68;100.00
4858;BME280;58975;51.978;8.472;2023-03-04T20:39:57;100824.97;;;2.66;100.00
4858;BME280;58975;51.978;8.472;2023-03-04T20:44:54;100823.97;;;2.69;100.00
4858;BME280;58975;51.978;8.472;2023-03-04T20:49:50;100827.66;;;2.65;100.00
4858;BME280;58975;51.978;8.472;2023-03-04T20:54:47;100827.78;;;2.62;100.00
4858;BME280;58975;51.978;8.472;2023-03-04T20:59:43;100826.06;;;2.61;100.00
4858;BME280;58975;51.978;8.472;2023-03-04T21:04:39;100815.69;;;2.58;100.00
4858;BME280;58975;51.978;8.472;2023-03-04T21:09:36;100820.13;;;2.56;100.00
4858;BME280;58975;51.978;8.472;2023-03-04T21:14:32;100813.25;;;2.53;100.00
4858;BME280;58975;51.978;8.472;2023-03-04T21:19:32;100812.50;;;2.50;100.00
4858;BME280;58975;51.978;8.472;2023-03-04T21:24:34;100807.31;;;2.48;100.00
4858;BME280;58975;51.978;8.472;2023-03-04T21:29:31;100815.28;;;2.47;100.00
4858;BME280;58975;51.978;8.472;2023-03-04T21:34:32;100816.66;;;2.33;100.00
4858;BME280;58975;51.978;8.472;2023-03-04T21:39:30;100794.19;;;2.26;100.00
4858;BME280;58975;51.978;8.472;2023-03-04T21:44:27;100804.88;;;2.22;100.00
4858;BME280;58975;51.978;8.472;2023-03-04T21:49:43;100802.06;;;2.26;100.00
4858;BME280;58975;51.978;8.472;2023-03-04T21:54:39;100810.72;;;2.28;100.00
4858;BME280;58975;51.978;8.472;2023-03-04T21:59:37;100795.22;;;2.22;100.00
4858;BME280;58975;51.978;8.472;2023-03-04T22:04:33;100798.09;;;2.16;100.00
4858;BME280;58975;51.978;8.472;2023-03-04T22:09:31;100787.75;;;2.12;100.00
4858;BME280;58975;51.978;8.472;2023-03-04T22:14:27;100788.06;;;2.04;100.00
4858;BME280;58975;51.978;8.472;2023-03-04T22:19:28;100782.94;;;2.01;100.00
4858;BME280;58975;51.978;8.472;2023-03-04T22:24:25;100783.84;;;2.00;100.00
4858;BME280;58975;51.978;8.472;2023-03-04T22:29:22;100782.19;;;1.98;100.00
4858;BME280;58975;51.978;8.472;2023-03-04T22:34:18;100783.06;;;1.98;100.00
4858;BME280;58975;51.978;8.472;2023-03-04T22:39:16;100772.69;;;1.95;100.00
4858;BME280;58975;51.978;8.472;2023-03-04T22:44:16;100771.88;;;1.93;100.00
4858;BME280;58975;51.978;8.472;2023-03-04T22:49:13;100774.63;;;1.90;100.00
4858;BME280;58975;51.978;8.472;2023-03-04T22:54:14;100772.91;;;1.89;100.00
4858;BME280;58975;51.978;8.472;2023-03-04T22:59:12;100749.22;;;1.90;100.00
4858;BME280;58975;51.978;8.472;2023-03-04T23:04:08;100751.13;;;1.87;100.00
4858;BME280;58975;51.978;8.472;2023-03-04T23:09:05;100740.66;;;1.85;100.00
4858;BME280;58975;51.978;8.472;2023-03-04T23:14:03;100743.28;;;1.85;100.00
4858;BME280;58975;51.978;8.472;2023-03-04T23:19:03;100749.53;;;1.83;100.00
4858;BME280;58975;51.978;8.472;2023-03-04T23:24:01;100743.38;;;1.84;100.00
4858;BME280;58975;51.978;8.472;2023-03-04T23:29:00;100741.63;;;1.83;100.00
4858;BME280;58975;51.978;8.472;2023-03-04T23:33:57;100734.53;;;1.85;100.00
4858;BME280;58975;51.978;8.472;2023-03-04T23:38:54;100731.13;;;1.83;100.00
4858;BME280;58975;51.978;8.472;2023-03-04T23:43:52;100732.84;;;1.84;100.00
4858;BME280;58975;51.978;8.472;2023-03-04T23:48:50;100740.78;;;1.82;100.00
4858;BME280;58975;51.978;8.472;2023-03-04T23:53:47;100726.84;;;1.80;100.00
4858;BME280;58975;51.978;8.472;2023-03-04T23:58:44;100726.00;;;1.80;100.00
